Latest Weather Observations for Horsley Park

IDN60901

Issued at 9:11 pm EDT Friday 24 March 2017 (issued every 10 minutes, with the page automatically refreshed every 10 minutes)

About weather observations | Map of Sydney area stations | Latest observations for Sydney area | Other Formats
Station Details ID: 067119 Name: HORSLEY PARK EQUESTRIAN CENTRE AWS Lat: -33.85 Lon: 150.86 Height: 100.0 m
Data from the previous 72 hours. | See also: Recent months at Horsley Park
Date/Time
EDT
Temp
°C
App
Temp
°C
Dew
Point
°C
Rel
Hum
%
Delta-T
°C
Wind Press
QNH
hPa
Press
MSL
hPa
Rain since
9am
mm
Dir  Spd
km/h
Gust
km/h
Spd
kts
Gust
kts
24/09:00pm 18.2 19.5 16.2 88 1.2 SE 4 6 2 3 - - 0.6
24/08:30pm 18.3 19.3 16.3 88 1.2 ESE 6 7 3 4 - - 0.6
24/08:00pm 18.3 19.4 16.5 89 1.1 ESE 6 11 3 6 - - 0.6
24/07:30pm 18.7 18.7 16.3 86 1.4 SE 11 17 6 9 - - 0.4
24/07:00pm 19.3 19.8 15.6 79 2.2 ESE 7 13 4 7 - - 0.0
24/06:30pm 19.9 20.0 15.5 76 2.6 ESE 9 17 5 9 - - 0.0
24/06:00pm 20.3 19.3 15.7 75 2.7 ESE 15 22 8 12 - - 0.0
24/05:30pm 21.3 19.8 16.3 73 3.0 SE 19 28 10 15 - - 0.0
24/05:00pm 21.0 19.3 15.8 72 3.1 SE 19 32 10 17 - - 0.0
24/04:30pm 22.6 21.6 14.7 61 4.7 ESE 13 22 7 12 - - 0.0
24/04:00pm 23.4 22.6 15.2 60 4.9 SE 13 19 7 10 - - 0.0
24/03:30pm 23.3 21.7 15.1 60 4.9 SE 17 24 9 13 - - 0.0
24/03:00pm 23.6 22.8 16.1 62 4.6 ESE 15 24 8 13 - - 0.0
24/02:30pm 23.7 24.0 17.0 66 4.1 SE 11 20 6 11 - - 0.0
24/02:00pm 22.8 21.6 15.1 62 4.6 SE 15 22 8 12 - - 0.0
24/01:30pm 23.1 22.3 15.2 61 4.7 SE 13 20 7 11 - - 0.0
24/01:00pm 22.4 21.3 15.3 64 4.3 SE 15 24 8 13 - - 0.0
24/12:30pm 23.0 22.6 15.3 62 4.6 S 11 19 6 10 - - 0.0
24/12:00pm 23.1 23.4 16.9 68 3.8 S 11 17 6 9 - - 0.0
24/11:30am 22.9 23.1 16.7 68 3.8 S 11 19 6 10 - - 0.0
24/11:00am 22.0 21.1 15.8 68 3.7 S 15 19 8 10 - - 0.0
24/10:30am 21.8 21.4 16.1 70 3.4 S 13 20 7 11 - - 0.0
24/10:00am 21.4 21.8 16.4 73 3.0 S 9 15 5 8 - - 0.0
24/09:30am 20.9 21.3 16.3 75 2.8 SSW 9 15 5 8 - - 0.0
24/09:00am 19.6 20.4 16.4 82 1.9 SW 7 11 4 6 - - 6.4
24/08:30am 18.9 19.2 16.1 84 1.7 SW 9 15 5 8 - - 6.4
24/08:00am 18.7 19.1 16.3 86 1.4 SW 9 13 5 7 - - 6.4
24/07:30am 18.0 18.4 16.3 90 1.0 SW 9 13 5 7 - - 6.4
24/07:00am 17.9 18.7 16.4 91 0.9 SW 7 13 4 7 - - 6.4
24/06:30am 17.9 18.9 16.4 91 0.9 WSW 6 9 3 5 - - 6.4
24/06:00am 17.9 18.8 16.6 92 0.8 SW 7 11 4 6 - - 6.4
24/05:30am 17.7 19.2 16.7 94 0.6 SW 4 6 2 3 - - 6.4
24/05:00am 17.7 18.9 16.9 95 0.5 SW 6 9 3 5 - - 6.4
24/04:30am 17.7 18.3 16.9 95 0.5 WSW 9 13 5 7 - - 6.4
24/04:00am 17.6 18.5 16.6 94 0.6 SW 7 9 4 5 - - 6.0
24/03:30am 17.7 18.2 16.6 93 0.7 SW 9 15 5 8 - - 6.0
24/03:00am 17.8 18.7 16.5 92 0.8 WSW 7 11 4 6 - - 6.0
24/02:30am 17.9 19.0 16.6 92 0.8 WSW 6 9 3 5 - - 6.0
24/02:00am 17.7 18.5 16.4 92 0.8 SW 7 9 4 5 - - 6.0
24/01:30am 18.1 19.0 16.6 91 0.9 SW 7 11 4 6 - - 6.0
24/01:00am 18.1 19.1 16.4 90 1.0 SSW 6 7 3 4 - - 6.0
24/12:30am 18.3 19.4 16.6 90 1.0 S 6 13 3 7 - - 6.0
24/12:00am 18.4 19.1 17.1 92 0.8 SW 9 15 5 8 - - 6.0
 
Date/Time
EDT
Temp
°C
App
Temp
°C
Dew
Point
°C
Rel
Hum
%
Delta-T
°C
Wind Press
QNH
hPa
Press
MSL
hPa
Rain since
9am
mm
Dir  Spd
km/h
Gust
km/h
Spd
kts
Gust
kts
23/11:30pm 18.1 19.7 17.0 93 0.7 SSW 4 7 2 4 - - 6.0
23/11:00pm 18.4 19.9 17.6 95 0.5 SSW 6 11 3 6 - - 6.0
23/10:30pm 18.4 20.3 17.6 95 0.5 SSW 4 9 2 5 - - 6.0
23/10:00pm 18.5 20.0 17.7 95 0.5 SW 6 11 3 6 - - 6.0
23/09:30pm 18.5 19.8 17.5 94 0.6 S 7 9 4 5 - - 5.2
23/09:00pm 18.9 21.0 18.1 95 0.5 WSW 4 15 2 8 - - 4.4
23/08:30pm 19.1 22.0 18.3 95 0.5 CALM 0 0 0 0 - - 4.0
23/08:00pm 19.2 22.2 18.4 95 0.5 CALM 0 2 0 1 - - 4.0
23/07:30pm 18.9 21.7 17.9 94 0.6 CALM 0 2 0 1 - - 4.0
23/07:00pm 19.0 21.8 18.0 94 0.6 CALM 0 4 0 2 - - 4.0
23/06:30pm 19.0 21.1 18.0 94 0.6 S 4 7 2 4 - - 4.0
23/06:00pm 19.1 21.5 17.9 93 0.7 S 2 7 1 4 - - 4.0
23/05:30pm 19.4 21.2 18.4 94 0.6 SW 6 13 3 7 - - 3.4
23/05:00pm 19.5 21.3 18.2 92 0.8 W 6 11 3 6 - - 1.4
23/04:30pm 20.1 21.8 18.1 88 1.2 SW 6 9 3 5 - - 0.6
23/04:00pm 20.2 22.3 18.0 87 1.4 W 4 7 2 4 - - 0.6
23/03:30pm 20.5 22.1 17.9 85 1.6 WSW 6 9 3 5 - - 0.6
23/03:00pm 20.8 23.1 17.6 82 2.0 SW 2 6 1 3 - - 0.4
23/02:30pm 21.1 22.5 17.3 79 2.3 WSW 6 9 3 5 - - 0.0
23/02:00pm 21.9 24.1 16.6 72 3.2 CALM 0 4 0 2 - - 0.0
23/01:30pm 22.0 24.6 17.4 75 2.8 CALM 0 2 0 1 - - 0.0
23/01:00pm 21.9 23.4 16.6 72 3.2 SW 4 6 2 3 - - 0.0
23/12:30pm 22.4 24.2 16.4 69 3.7 SSW 2 7 1 4 - - 0.0
23/12:00pm 22.3 23.4 16.6 70 3.5 SW 6 9 3 5 - - 0.0
23/11:30am 21.8 23.3 16.7 73 3.1 SW 4 6 2 3 - - 0.0
23/11:00am 21.4 22.3 16.1 72 3.2 SW 6 9 3 5 - - 0.0
23/10:30am 21.3 21.9 15.8 71 3.3 S 7 13 4 7 - - 0.0
23/10:00am 21.3 22.3 16.3 73 3.0 SW 6 13 3 7 - - 0.0
23/09:30am 20.9 21.2 16.1 74 2.9 SSW 9 15 5 8 - - 0.0
23/09:00am 21.1 22.7 16.9 77 2.6 SW 4 9 2 5 - - 6.4
23/08:30am 20.4 21.3 16.0 76 2.6 SSW 6 9 3 5 - - 6.4
23/08:00am 20.2 21.1 16.2 78 2.4 SW 6 13 3 7 - - 6.4
23/07:30am 19.9 21.6 16.2 79 2.2 SW 2 4 1 2 - - 6.4
23/07:00am 19.9 20.8 16.0 78 2.3 SW 6 9 3 5 - - 6.4
23/06:30am 19.8 21.5 16.1 79 2.2 S 2 6 1 3 - - 6.4
23/06:00am 20.0 20.7 16.0 78 2.4 SSW 7 11 4 6 - - 6.4
23/05:30am 20.1 21.2 16.5 80 2.2 SSW 6 9 3 5 - - 6.4
23/05:00am 20.2 21.2 16.8 81 2.1 SW 7 11 4 6 - - 6.4
23/04:30am 20.1 21.7 16.9 82 1.9 SSW 4 7 2 4 - - 6.4
23/04:00am 20.2 21.9 17.2 83 1.8 SW 4 6 2 3 - - 6.4
23/03:30am 20.1 21.7 16.9 82 1.9 SW 4 6 2 3 - - 6.4
23/03:00am 20.4 22.6 17.4 83 1.8 S 2 6 1 3 - - 6.4
23/02:30am 20.3 22.0 17.1 82 2.0 S 4 7 2 4 - - 6.4
23/02:00am 20.4 21.5 17.2 82 2.0 S 7 15 4 8 - - 6.4
23/01:30am 20.5 21.3 17.3 82 2.0 SSW 9 15 5 8 - - 6.4
23/01:00am 20.6 21.1 17.4 82 2.0 S 11 19 6 10 - - 6.4
23/12:30am 20.7 21.8 18.1 85 1.6 S 9 17 5 9 - - 6.4
23/12:00am 21.0 22.8 18.8 87 1.4 SSE 7 15 4 8 - - 6.4
 
Date/Time
EDT
Temp
°C
App
Temp
°C
Dew
Point
°C
Rel
Hum
%
Delta-T
°C
Wind Press
QNH
hPa
Press
MSL
hPa
Rain since
9am
mm
Dir  Spd
km/h
Gust
km/h
Spd
kts
Gust
kts
22/11:30pm 21.0 23.0 19.1 89 1.2 S 7 13 4 7 - - 6.4
22/11:00pm 20.9 24.2 19.0 89 1.2 CALM 0 4 0 2 - - 6.4
22/10:30pm 20.9 23.9 19.2 90 1.1 SSW 2 6 1 3 - - 6.4
22/10:00pm 20.6 22.6 19.1 91 0.9 S 7 9 4 5 - - 6.4
22/09:30pm 20.2 21.6 18.7 91 0.9 S 9 13 5 7 - - 6.4
22/09:00pm 20.2 21.5 18.5 90 1.1 SSW 9 15 5 8 - - 6.4
22/08:30pm 20.3 21.8 19.0 92 0.8 SW 9 17 5 9 - - 6.4
22/08:00pm 20.3 22.8 19.0 92 0.8 WSW 4 7 2 4 - - 6.4
22/07:30pm 20.7 23.4 19.4 92 0.8 W 4 7 2 4 - - 6.4
22/07:00pm 20.8 23.9 19.5 92 0.8 NW 2 9 1 5 - - 6.4
22/06:30pm 20.3 22.4 19.0 92 0.8 ESE 6 9 3 5 - - 6.4
22/06:00pm 20.4 22.7 19.4 94 0.6 SE 6 9 3 5 - - 6.4
22/05:30pm 20.3 21.9 19.1 93 0.8 SE 9 17 5 9 - - 6.4
22/05:00pm 20.4 19.0 18.0 86 1.5 SSW 22 43 12 23 - - 4.6
22/04:30pm 22.3 24.2 19.8 86 1.6 SSW 9 15 5 8 - - 3.2
22/04:00pm 21.2 23.3 18.9 87 1.5 N 6 15 3 8 - - 3.2
22/03:30pm 23.4 21.8 17.4 69 3.7 WNW 22 41 12 22 - - 0.2
22/03:24pm 25.3 25.7 16.4 57 5.5 NNW 9 37 5 20 - - 0.2
22/03:00pm 30.6 34.7 20.8 56 6.6 CALM 0 0 0 0 - - 0.2
22/02:30pm 30.1 34.4 21.2 59 6.0 CALM 0 6 0 3 - - 0.2
22/02:00pm 30.0 33.1 20.3 56 6.4 SE 4 9 2 5 - - 0.2
22/01:30pm 29.7 33.6 21.1 60 5.8 S 2 7 1 4 - - 0.2
22/01:00pm 29.5 34.1 21.7 63 5.3 CALM 0 9 0 5 - - 0.2
22/12:30pm 29.6 33.8 21.8 63 5.3 NNE 2 6 1 3 - - 0.2
22/12:00pm 28.8 33.1 21.1 63 5.1 CALM 0 4 0 2 - - 0.2
22/11:30am 27.8 32.2 22.1 71 3.8 NNE 2 6 1 3 - - 0.2
22/11:00am 26.4 31.0 21.8 76 3.1 CALM 0 4 0 2 - - 0.0
22/10:30am 25.2 29.3 22.3 84 2.0 NNW 4 7 2 4 - - 0.0
22/10:00am 23.8 27.2 20.9 84 1.9 NNW 4 6 2 3 - - 0.0
22/09:30am 23.4 26.5 21.1 87 1.5 NNW 6 13 3 7 - - 0.0
22/09:00am 22.7 26.5 21.0 90 1.1 NNW 2 6 1 3 - - 8.6
22/08:30am 22.5 25.5 20.8 90 1.1 NNW 6 11 3 6 - - 8.6
22/08:00am 22.3 24.7 20.8 91 1.0 NNW 9 15 5 8 - - 8.6
22/07:30am 22.0 25.8 21.0 94 0.7 N 2 7 1 4 - - 8.6
22/07:00am 21.9 25.3 20.9 94 0.7 N 4 7 2 4 - - 8.6
22/06:30am 21.7 25.5 21.0 96 0.5 N 2 6 1 3 - - 8.6
22/06:00am 21.3 24.9 20.6 96 0.5 NNE 2 4 1 2 - - 8.6
22/05:30am 21.5 25.2 20.8 96 0.5 N 2 4 1 2 - - 8.6
22/05:00am 21.6 25.6 20.6 94 0.6 CALM 0 4 0 2 - - 8.6
22/04:30am 21.9 24.9 20.9 94 0.7 WSW 6 9 3 5 - - 8.6
22/04:00am 22.1 25.9 20.9 93 0.8 WNW 2 6 1 3 - - 8.6
22/03:30am 22.1 24.9 20.9 93 0.8 NW 7 13 4 7 - - 8.6
22/03:00am 21.9 24.4 21.1 95 0.5 NW 9 13 5 7 - - 8.6
22/02:30am 22.0 24.9 21.0 94 0.7 NW 7 13 4 7 - - 8.6
22/02:00am 21.9 25.0 21.1 95 0.5 NNW 6 9 3 5 - - 8.6
22/01:30am 22.0 25.0 21.3 96 0.5 NNW 7 13 4 7 - - 8.6
22/01:00am 22.0 25.1 21.5 97 0.3 NW 7 13 4 7 - - 8.6
22/12:30am 22.0 25.8 21.7 98 0.2 NNW 4 9 2 5 - - 8.6
22/12:00am 22.0 25.8 21.7 98 0.2 N 4 9 2 5 - - 8.6
 
Date/Time
EDT
Temp
°C
App
Temp
°C
Dew
Point
°C
Rel
Hum
%
Delta-T
°C
Wind Press
QNH
hPa
Press
MSL
hPa
Rain since
9am
mm
Dir  Spd
km/h
Gust
km/h
Spd
kts
Gust
kts
21/11:30pm 22.1 26.7 21.8 98 0.2 CALM 0 0 0 0 - - 8.6
21/11:00pm 22.2 25.7 21.9 98 0.2 NW 6 9 3 5 - - 8.4
21/10:30pm 22.2 25.7 21.9 98 0.2 NW 6 9 3 5 - - 7.6
21/10:00pm 22.3 25.8 21.8 97 0.3 NW 6 9 3 5 - - 7.6
21/09:30pm 22.3 26.5 21.8 97 0.3 WNW 2 4 1 2 - - 7.6

Latest Capital City Observations: Canberra | Sydney | Melbourne | Brisbane | Adelaide | Perth | Hobart | Darwin

Other Formats:

Comma delimited format used in spreadsheet applications
http://www.bom.gov.au/fwo/IDN60901/IDN60901.94760.axf

JavaScript Object Notation format (JSON) in row-major order
http://www.bom.gov.au/fwo/IDN60901/IDN60901.94760.json